sensor_id;sensor_type;location;lat;lon;timestamp;pressure;altitude;pressure_sealevel;temperature;humidity
81005;BME280;70472;47.592;17.640;2023-07-02T00:00:26;98965.59;;;17.99;86.93
81005;BME280;70472;47.592;17.640;2023-07-02T00:01:01;98963.69;;;18.00;87.16
81005;BME280;70472;47.592;17.640;2023-07-02T00:01:33;98965.94;;;18.03;87.47
81005;BME280;70472;47.592;17.640;2023-07-02T00:02:06;98965.09;;;18.02;87.40
81005;BME280;70472;47.592;17.640;2023-07-02T00:02:39;98961.34;;;18.03;87.23
81005;BME280;70472;47.592;17.640;2023-07-02T00:03:11;98961.34;;;18.03;87.08
81005;BME280;70472;47.592;17.640;2023-07-02T00:03:44;98967.47;;;17.99;87.10
81005;BME280;70472;47.592;17.640;2023-07-02T00:04:16;98958.00;;;18.01;87.84
81005;BME280;70472;47.592;17.640;2023-07-02T00:04:49;98962.16;;;18.04;87.02
81005;BME280;70472;47.592;17.640;2023-07-02T00:05:23;98962.47;;;18.07;87.42
81005;BME280;70472;47.592;17.640;2023-07-02T00:05:56;98960.81;;;18.06;88.01
81005;BME280;70472;47.592;17.640;2023-07-02T00:06:31;98966.25;;;18.06;87.55
81005;BME280;70472;47.592;17.640;2023-07-02T00:07:04;98964.13;;;18.08;87.89
81005;BME280;70472;47.592;17.640;2023-07-02T00:07:37;98964.97;;;18.09;88.42
81005;BME280;70472;47.592;17.640;2023-07-02T00:08:09;98960.66;;;18.13;87.92
81005;BME280;70472;47.592;17.640;2023-07-02T00:08:41;98961.19;;;18.10;87.45
81005;BME280;70472;47.592;17.640;2023-07-02T00:09:15;98966.00;;;18.08;86.77
81005;BME280;70472;47.592;17.640;2023-07-02T00:09:48;98962.97;;;18.04;87.03
81005;BME280;70472;47.592;17.640;2023-07-02T00:10:21;98962.16;;;18.04;86.57
81005;BME280;70472;47.592;17.640;2023-07-02T00:10:53;98961.81;;;18.00;86.59
81005;BME280;70472;47.592;17.640;2023-07-02T00:11:25;98959.81;;;17.96;87.66
81005;BME280;70472;47.592;17.640;2023-07-02T00:11:58;98968.31;;;17.99;87.58
81005;BME280;70472;47.592;17.640;2023-07-02T00:12:30;98968.56;;;17.98;87.04
81005;BME280;70472;47.592;17.640;2023-07-02T00:13:03;98961.13;;;17.93;86.80
81005;BME280;70472;47.592;17.640;2023-07-02T00:13:36;98958.88;;;17.90;87.42
81005;BME280;70472;47.592;17.640;2023-07-02T00:14:09;98959.00;;;17.95;86.98
81005;BME280;70472;47.592;17.640;2023-07-02T00:14:42;98967.13;;;17.95;87.91
81005;BME280;70472;47.592;17.640;2023-07-02T00:15:15;98963.75;;;17.88;87.47
81005;BME280;70472;47.592;17.640;2023-07-02T00:15:47;98970.81;;;17.89;86.70
81005;BME280;70472;47.592;17.640;2023-07-02T00:16:20;98961.59;;;17.90;86.67
81005;BME280;70472;47.592;17.640;2023-07-02T00:16:52;98965.38;;;17.89;87.99
81005;BME280;70472;47.592;17.640;2023-07-02T00:17:25;98967.63;;;17.92;87.88
81005;BME280;70472;47.592;17.640;2023-07-02T00:17:57;98959.50;;;17.92;87.99
81005;BME280;70472;47.592;17.640;2023-07-02T00:18:30;98966.06;;;17.96;87.76
81005;BME280;70472;47.592;17.640;2023-07-02T00:19:02;98967.03;;;17.90;87.18
81005;BME280;70472;47.592;17.640;2023-07-02T00:19:35;98969.28;;;17.93;86.72
81005;BME280;70472;47.592;17.640;2023-07-02T00:20:09;98962.78;;;17.94;87.17
81005;BME280;70472;47.592;17.640;2023-07-02T00:20:41;98962.31;;;17.97;86.42
81005;BME280;70472;47.592;17.640;2023-07-02T00:21:14;98965.03;;;17.97;86.16
81005;BME280;70472;47.592;17.640;2023-07-02T00:21:46;98963.28;;;17.91;87.52
81005;BME280;70472;47.592;17.640;2023-07-02T00:22:19;98964.31;;;17.90;86.99
81005;BME280;70472;47.592;17.640;2023-07-02T00:22:51;98967.84;;;17.91;86.60
81005;BME280;70472;47.592;17.640;2023-07-02T00:23:24;98964.00;;;17.86;87.55
81005;BME280;70472;47.592;17.640;2023-07-02T00:23:57;98964.72;;;17.82;86.71
81005;BME280;70472;47.592;17.640;2023-07-02T00:24:30;98966.34;;;17.83;87.85
81005;BME280;70472;47.592;17.640;2023-07-02T00:25:03;98962.56;;;17.84;87.07
81005;BME280;70472;47.592;17.640;2023-07-02T00:25:36;98969.06;;;17.83;87.29
81005;BME280;70472;47.592;17.640;2023-07-02T00:26:08;98967.84;;;17.91;87.87
81005;BME280;70472;47.592;17.640;2023-07-02T00:26:42;98956.53;;;17.94;87.88
81005;BME280;70472;47.592;17.640;2023-07-02T00:27:16;98973.16;;;17.97;87.79
81005;BME280;70472;47.592;17.640;2023-07-02T00:27:49;98965.50;;;17.94;88.00
81005;BME280;70472;47.592;17.640;2023-07-02T00:28:21;98962.00;;;17.82;87.56
81005;BME280;70472;47.592;17.640;2023-07-02T00:28:56;98961.06;;;17.76;88.05
81005;BME280;70472;47.592;17.640;2023-07-02T00:29:29;98967.56;;;17.75;87.96
81005;BME280;70472;47.592;17.640;2023-07-02T00:30:01;98970.13;;;17.82;88.38
81005;BME280;70472;47.592;17.640;2023-07-02T00:30:34;98962.91;;;17.87;87.86
81005;BME280;70472;47.592;17.640;2023-07-02T00:31:06;98968.69;;;17.91;87.88
81005;BME280;70472;47.592;17.640;2023-07-02T00:31:39;98966.31;;;17.95;87.92
81005;BME280;70472;47.592;17.640;2023-07-02T00:32:11;98968.09;;;17.89;88.10
81005;BME280;70472;47.592;17.640;2023-07-02T00:32:44;98970.81;;;17.89;87.30
81005;BME280;70472;47.592;17.640;2023-07-02T00:33:16;98969.41;;;17.86;87.77
81005;BME280;70472;47.592;17.640;2023-07-02T00:33:50;98968.59;;;17.86;87.61
81005;BME280;70472;47.592;17.640;2023-07-02T00:34:22;98969.66;;;17.85;87.53
81005;BME280;70472;47.592;17.640;2023-07-02T00:34:55;98968.09;;;17.89;87.55
81005;BME280;70472;47.592;17.640;2023-07-02T00:35:28;98973.78;;;17.87;88.09
81005;BME280;70472;47.592;17.640;2023-07-02T00:36:01;98967.03;;;17.90;88.25
81005;BME280;70472;47.592;17.640;2023-07-02T00:36:33;98967.63;;;17.92;88.32
81005;BME280;70472;47.592;17.640;2023-07-02T00:37:06;98963.84;;;17.93;87.35
81005;BME280;70472;47.592;17.640;2023-07-02T00:37:38;98961.47;;;17.97;87.37
81005;BME280;70472;47.592;17.640;2023-07-02T00:38:11;98962.88;;;17.99;87.03
81005;BME280;70472;47.592;17.640;2023-07-02T00:38:47;98970.19;;;17.99;87.44
81005;BME280;70472;47.592;17.640;2023-07-02T00:39:20;98971.00;;;17.99;87.26
81005;BME280;70472;47.592;17.640;2023-07-02T00:39:53;98961.81;;;18.00;87.73
81005;BME280;70472;47.592;17.640;2023-07-02T00:40:27;98965.09;;;18.02;87.35
81005;BME280;70472;47.592;17.640;2023-07-02T00:40:59;98965.94;;;18.03;87.24
81005;BME280;70472;47.592;17.640;2023-07-02T00:41:32;98963.94;;;17.98;87.95
81005;BME280;70472;47.592;17.640;2023-07-02T00:42:04;98961.13;;;17.93;87.82
81005;BME280;70472;47.592;17.640;2023-07-02T00:42:37;98968.81;;;17.84;87.34
81005;BME280;70472;47.592;17.640;2023-07-02T00:43:10;98968.69;;;17.91;87.68
81005;BME280;70472;47.592;17.640;2023-07-02T00:43:44;98966.81;;;17.92;87.78
81005;BME280;70472;47.592;17.640;2023-07-02T00:44:17;98958.16;;;17.95;87.25
81005;BME280;70472;47.592;17.640;2023-07-02T00:44:49;98956.88;;;17.97;88.02
81005;BME280;70472;47.592;17.640;2023-07-02T00:45:22;98962.88;;;17.99;87.58
81005;BME280;70472;47.592;17.640;2023-07-02T00:45:55;98961.81;;;18.00;87.61
81005;BME280;70472;47.592;17.640;2023-07-02T00:46:27;98964.88;;;18.04;87.79
81005;BME280;70472;47.592;17.640;2023-07-02T00:47:00;98962.63;;;18.01;87.32
81005;BME280;70472;47.592;17.640;2023-07-02T00:47:35;98969.69;;;18.02;87.49
81005;BME280;70472;47.592;17.640;2023-07-02T00:48:07;98966.75;;;18.03;86.91
81005;BME280;70472;47.592;17.640;2023-07-02T00:48:41;98969.47;;;18.03;87.11
81005;BME280;70472;47.592;17.640;2023-07-02T00:49:13;98971.13;;;18.04;87.46
81005;BME280;70472;47.592;17.640;2023-07-02T00:49:46;98967.91;;;18.07;87.50
81005;BME280;70472;47.592;17.640;2023-07-02T00:50:19;98963.78;;;18.05;87.67
81005;BME280;70472;47.592;17.640;2023-07-02T00:50:52;98966.00;;;18.08;87.79
81005;BME280;70472;47.592;17.640;2023-07-02T00:51:27;98965.19;;;18.07;86.92
81005;BME280;70472;47.592;17.640;2023-07-02T00:51:59;98967.44;;;18.10;87.82
81005;BME280;70472;47.592;17.640;2023-07-02T00:52:32;98961.09;;;18.05;87.21
81005;BME280;70472;47.592;17.640;2023-07-02T00:53:04;98967.06;;;18.07;87.00
81005;BME280;70472;47.592;17.640;2023-07-02T00:53:37;98967.06;;;18.07;87.22
81005;BME280;70472;47.592;17.640;2023-07-02T00:54:10;98965.94;;;18.03;87.54
81005;BME280;70472;47.592;17.640;2023-07-02T00:54:43;98960.50;;;18.03;87.41
81005;BME280;70472;47.592;17.640;2023-07-02T00:55:18;98969.13;;;18.00;87.74
81005;BME280;70472;47.592;17.640;2023-07-02T00:55:51;98963.69;;;18.00;87.45
81005;BME280;70472;47.592;17.640;2023-07-02T00:56:25;98969.47;;;18.03;86.86
81005;BME280;70472;47.592;17.640;2023-07-02T00:56:58;98969.78;;;18.07;87.75
81005;BME280;70472;47.592;17.640;2023-07-02T00:57:31;98966.00;;;18.08;87.03
81005;BME280;70472;47.592;17.640;2023-07-02T00:58:06;98965.09;;;18.02;87.27
81005;BME280;70472;47.592;17.640;2023-07-02T00:58:43;98970.50;;;18.02;87.59
81005;BME280;70472;47.592;17.640;2023-07-02T00:59:16;98967.31;;;18.05;87.65
81005;BME280;70472;47.592;17.640;2023-07-02T00:59:48;98965.44;;;18.06;87.44
81005;BME280;70472;47.592;17.640;2023-07-02T01:00:21;98968.72;;;18.08;87.77
81005;BME280;70472;47.592;17.640;2023-07-02T01:00:53;98970.41;;;18.09;86.73
81005;BME280;70472;47.592;17.640;2023-07-02T01:01:28;98966.81;;;18.08;88.02
81005;BME280;70472;47.592;17.640;2023-07-02T01:02:01;98965.19;;;18.07;86.94
81005;BME280;70472;47.592;17.640;2023-07-02T01:02:33;98965.78;;;18.09;87.11
81005;BME280;70472;47.592;17.640;2023-07-02T01:03:05;98971.69;;;18.06;87.14
81005;BME280;70472;47.592;17.640;2023-07-02T01:03:38;98964.50;;;18.00;87.14
81005;BME280;70472;47.592;17.640;2023-07-02T01:04:10;98964.25;;;18.02;87.20
81005;BME280;70472;47.592;17.640;2023-07-02T01:04:43;98967.22;;;18.00;87.59
81005;BME280;70472;47.592;17.640;2023-07-02T01:05:16;98968.56;;;17.98;87.97
81005;BME280;70472;47.592;17.640;2023-07-02T01:05:50;98967.22;;;18.00;87.41
81005;BME280;70472;47.592;17.640;2023-07-02T01:06:28;98968.66;;;18.03;86.73
81005;BME280;70472;47.592;17.640;2023-07-02T01:07:01;98965.94;;;18.03;86.72
81005;BME280;70472;47.592;17.640;2023-07-02T01:07:34;98964.63;;;18.05;87.57
81005;BME280;70472;47.592;17.640;2023-07-02T01:08:07;98964.88;;;18.04;87.65
81005;BME280;70472;47.592;17.640;2023-07-02T01:08:39;98966.75;;;18.03;87.12
81005;BME280;70472;47.592;17.640;2023-07-02T01:09:12;98970.50;;;18.02;87.29
81005;BME280;70472;47.592;17.640;2023-07-02T01:09:44;98972.66;;;18.00;86.82
81005;BME280;70472;47.592;17.640;2023-07-02T01:10:17;98971.00;;;17.99;87.11
81005;BME280;70472;47.592;17.640;2023-07-02T01:10:49;98965.25;;;17.96;87.72
81005;BME280;70472;47.592;17.640;2023-07-02T01:11:38;98965.75;;;17.93;87.38
81005;BME280;70472;47.592;17.640;2023-07-02T01:12:12;98963.13;;;17.98;87.66
81005;BME280;70472;47.592;17.640;2023-07-02T01:12:46;98964.75;;;17.99;87.83
81005;BME280;70472;47.592;17.640;2023-07-02T01:13:22;98966.66;;;17.98;86.93
81005;BME280;70472;47.592;17.640;2023-07-02T01:14:03;98962.88;;;17.99;87.59
81005;BME280;70472;47.592;17.640;2023-07-02T01:14:42;98966.00;;;17.91;87.03
81005;BME280;70472;47.592;17.640;2023-07-02T01:15:16;98971.41;;;17.91;87.15
81005;BME280;70472;47.592;17.640;2023-07-02T01:15:49;98968.09;;;17.89;87.25
81005;BME280;70472;47.592;17.640;2023-07-02T01:16:22;98972.13;;;17.86;87.29
81005;BME280;70472;47.592;17.640;2023-07-02T01:16:55;98968.81;;;17.84;87.14
81005;BME280;70472;47.592;17.640;2023-07-02T01:17:31;98964.03;;;17.75;87.08
81005;BME280;70472;47.592;17.640;2023-07-02T01:18:06;98971.56;;;17.73;87.64
81005;BME280;70472;47.592;17.640;2023-07-02T01:18:39;98968.97;;;17.78;87.25
81005;BME280;70472;47.592;17.640;2023-07-02T01:19:21;98970.13;;;17.82;87.00
81005;BME280;70472;47.592;17.640;2023-07-02T01:19:58;98962.00;;;17.70;86.55
81005;BME280;70472;47.592;17.640;2023-07-02T01:20:31;98968.75;;;17.68;87.16
81005;BME280;70472;47.592;17.640;2023-07-02T01:21:05;98964.38;;;17.67;86.60
81005;BME280;70472;47.592;17.640;2023-07-02T01:21:39;98966.63;;;17.70;86.98
81005;BME280;70472;47.592;17.640;2023-07-02T01:22:13;98962.84;;;17.71;86.51
81005;BME280;70472;47.592;17.640;2023-07-02T01:22:49;98965.69;;;17.76;87.12
81005;BME280;70472;47.592;17.640;2023-07-02T01:23:21;98968.97;;;17.78;86.19
81005;BME280;70472;47.592;17.640;2023-07-02T01:23:54;98967.31;;;17.77;86.26
81005;BME280;70472;47.592;17.640;2023-07-02T01:24:28;98963.31;;;17.68;87.03
81005;BME280;70472;47.592;17.640;2023-07-02T01:25:01;98963.91;;;17.70;87.23
81005;BME280;70472;47.592;17.640;2023-07-02T01:25:34;98960.38;;;17.69;86.71
81005;BME280;70472;47.592;17.640;2023-07-02T01:26:07;98960.00;;;17.66;86.43
81005;BME280;70472;47.592;17.640;2023-07-02T01:26:40;98964.28;;;17.61;87.07
81005;BME280;70472;47.592;17.640;2023-07-02T01:27:14;98965.25;;;17.55;86.27
81005;BME280;70472;47.592;17.640;2023-07-02T01:27:46;98969.81;;;17.55;86.53
81005;BME280;70472;47.592;17.640;2023-07-02T01:28:19;98963.13;;;17.57;85.67
81005;BME280;70472;47.592;17.640;2023-07-02T01:28:52;98966.28;;;17.54;86.33
81005;BME280;70472;47.592;17.640;2023-07-02T01:29:24;98964.19;;;17.56;86.01
81005;BME280;70472;47.592;17.640;2023-07-02T01:29:57;98968.91;;;17.61;86.10
81005;BME280;70472;47.592;17.640;2023-07-02T01:30:29;98970.53;;;17.62;86.89
81005;BME280;70472;47.592;17.640;2023-07-02T01:31:04;98968.91;;;17.61;86.43
81005;BME280;70472;47.592;17.640;2023-07-02T01:31:37;98965.34;;;17.60;86.66
81005;BME280;70472;47.592;17.640;2023-07-02T01:32:09;98966.19;;;17.61;85.88
81005;BME280;70472;47.592;17.640;2023-07-02T01:32:41;98965.13;;;17.62;87.02
81005;BME280;70472;47.592;17.640;2023-07-02T01:33:14;98965.16;;;17.50;85.40
81005;BME280;70472;47.592;17.640;2023-07-02T01:33:49;98975.06;;;17.45;86.02
81005;BME280;70472;47.592;17.640;2023-07-02T01:34:21;98964.94;;;17.40;86.44
81005;BME280;70472;47.592;17.640;2023-07-02T01:34:54;98965.78;;;17.29;85.44
81005;BME280;70472;47.592;17.640;2023-07-02T01:35:26;98967.91;;;17.27;85.88
81005;BME280;70472;47.592;17.640;2023-07-02T01:35:59;98965.53;;;17.30;85.92
81005;BME280;70472;47.592;17.640;2023-07-02T01:36:31;98962.94;;;17.35;86.14
81005;BME280;70472;47.592;17.640;2023-07-02T01:37:05;98960.22;;;17.35;86.81
81005;BME280;70472;47.592;17.640;2023-07-02T01:37:38;98965.88;;;17.34;86.27
81005;BME280;70472;47.592;17.640;2023-07-02T01:38:11;98967.63;;;17.40;86.88
81005;BME280;70472;47.592;17.640;2023-07-02T01:38:43;98968.81;;;17.44;86.77
81005;BME280;70472;47.592;17.640;2023-07-02T01:39:15;98969.38;;;17.46;86.35
81005;BME280;70472;47.592;17.640;2023-07-02T01:39:48;98969.84;;;17.43;86.28
81005;BME280;70472;47.592;17.640;2023-07-02T01:40:20;98970.91;;;17.42;86.55
81005;BME280;70472;47.592;17.640;2023-07-02T01:40:52;98966.47;;;17.36;85.97
81005;BME280;70472;47.592;17.640;2023-07-02T01:41:25;98973.78;;;17.24;85.91
81005;BME280;70472;47.592;17.640;2023-07-02T01:42:23;98979.56;;;17.27;85.98
81005;BME280;70472;47.592;17.640;2023-07-02T01:42:56;98970.00;;;17.25;86.76
81005;BME280;70472;47.592;17.640;2023-07-02T01:43:28;98972.97;;;17.23;86.30
81005;BME280;70472;47.592;17.640;2023-07-02T01:44:00;98975.34;;;17.20;86.11
81005;BME280;70472;47.592;17.640;2023-07-02T01:44:33;98971.31;;;17.22;86.13
81005;BME280;70472;47.592;17.640;2023-07-02T01:45:06;98977.09;;;17.26;87.17
81005;BME280;70472;47.592;17.640;2023-07-02T01:45:41;98967.41;;;17.30;86.69
81005;BME280;70472;47.592;17.640;2023-07-02T01:46:14;98972.25;;;17.28;86.99
81005;BME280;70472;47.592;17.640;2023-07-02T01:46:47;98971.69;;;17.26;86.29
81005;BME280;70472;47.592;17.640;2023-07-02T01:47:20;98971.31;;;17.22;85.62
81005;BME280;70472;47.592;17.640;2023-07-02T01:47:52;98973.47;;;17.20;86.42
81005;BME280;70472;47.592;17.640;2023-07-02T01:48:25;98974.03;;;17.22;86.15
81005;BME280;70472;47.592;17.640;2023-07-02T01:48:57;98977.00;;;17.21;86.10
81005;BME280;70472;47.592;17.640;2023-07-02T01:49:30;98973.78;;;17.24;86.37
81005;BME280;70472;47.592;17.640;2023-07-02T01:50:05;98970.63;;;17.27;85.53
81005;BME280;70472;47.592;17.640;2023-07-02T01:50:39;98968.84;;;17.21;86.06
81005;BME280;70472;47.592;17.640;2023-07-02T01:51:11;98974.03;;;17.22;86.42
81005;BME280;70472;47.592;17.640;2023-07-02T01:51:51;98969.56;;;17.16;86.09
81005;BME280;70472;47.592;17.640;2023-07-02T01:52:23;98971.91;;;17.13;85.38
81005;BME280;70472;47.592;17.640;2023-07-02T01:52:56;98969.81;;;17.15;85.59
81005;BME280;70472;47.592;17.640;2023-07-02T01:53:28;98971.09;;;17.12;85.92
81005;BME280;70472;47.592;17.640;2023-07-02T01:54:01;98972.72;;;17.13;86.04
81005;BME280;70472;47.592;17.640;2023-07-02T01:54:35;98975.69;;;17.12;86.16
81005;BME280;70472;47.592;17.640;2023-07-02T01:55:08;98974.28;;;17.09;85.96
81005;BME280;70472;47.592;17.640;2023-07-02T01:55:41;98970.50;;;17.10;85.69
81005;BME280;70472;47.592;17.640;2023-07-02T01:56:13;98972.16;;;17.11;85.00
81005;BME280;70472;47.592;17.640;2023-07-02T01:56:46;98968.38;;;17.00;84.86
81005;BME280;70472;47.592;17.640;2023-07-02T01:57:18;98976.75;;;16.99;84.86
81005;BME280;70472;47.592;17.640;2023-07-02T01:57:51;98979.47;;;16.99;85.56
81005;BME280;70472;47.592;17.640;2023-07-02T01:58:23;98977.47;;;16.94;84.92
81005;BME280;70472;47.592;17.640;2023-07-02T01:58:55;98971.47;;;16.92;85.38
81005;BME280;70472;47.592;17.640;2023-07-02T01:59:28;98972.03;;;16.94;85.63
81005;BME280;70472;47.592;17.640;2023-07-02T02:00:00;98980.66;;;16.91;84.54
81005;BME280;70472;47.592;17.640;2023-07-02T02:00:46;98978.41;;;16.88;85.03
81005;BME280;70472;47.592;17.640;2023-07-02T02:01:19;98968.75;;;16.92;85.12
81005;BME280;70472;47.592;17.640;2023-07-02T02:01:52;98973.59;;;16.90;84.58
81005;BME280;70472;47.592;17.640;2023-07-02T02:02:24;98976.06;;;16.92;84.64
81005;BME280;70472;47.592;17.640;2023-07-02T02:02:57;98964.03;;;16.88;85.19
81005;BME280;70472;47.592;17.640;2023-07-02T02:03:29;98971.34;;;16.87;85.33
81005;BME280;70472;47.592;17.640;2023-07-02T02:04:02;98979.22;;;16.89;85.65
81005;BME280;70472;47.592;17.640;2023-07-02T02:04:34;98974.06;;;16.87;85.78
81005;BME280;70472;47.592;17.640;2023-07-02T02:05:07;98974.63;;;16.89;85.60
81005;BME280;70472;47.592;17.640;2023-07-02T02:05:39;98970.66;;;16.92;85.56
81005;BME280;70472;47.592;17.640;2023-07-02T02:06:12;98974.41;;;16.91;85.88
81005;BME280;70472;47.592;17.640;2023-07-02T02:06:45;98967.00;;;16.86;85.00
81005;BME280;70472;47.592;17.640;2023-07-02T02:07:17;98973.69;;;16.72;84.98
81005;BME280;70472;47.592;17.640;2023-07-02T02:07:49;98967.22;;;16.73;85.15
81005;BME280;70472;47.592;17.640;2023-07-02T02:08:22;98971.91;;;16.77;85.71
81005;BME280;70472;47.592;17.640;2023-07-02T02:08:54;98964.28;;;16.74;85.89
81005;BME280;70472;47.592;17.640;2023-07-02T02:09:26;98975.44;;;16.78;85.32
81005;BME280;70472;47.592;17.640;2023-07-02T02:09:59;98977.25;;;16.72;85.49
81005;BME280;70472;47.592;17.640;2023-07-02T02:10:31;98967.75;;;16.63;85.30
81005;BME280;70472;47.592;17.640;2023-07-02T02:11:04;98970.72;;;16.62;85.16
81005;BME280;70472;47.592;17.640;2023-07-02T02:11:47;98966.00;;;16.69;85.25
81005;BME280;70472;47.592;17.640;2023-07-02T02:12:20;98967.81;;;16.75;85.59
81005;BME280;70472;47.592;17.640;2023-07-02T02:12:52;98975.69;;;16.76;86.01
81005;BME280;70472;47.592;17.640;2023-07-02T02:13:25;98972.53;;;16.79;86.00
81005;BME280;70472;47.592;17.640;2023-07-02T02:13:58;98975.00;;;16.81;86.25
81005;BME280;70472;47.592;17.640;2023-07-02T02:14:30;98974.28;;;16.74;85.68
81005;BME280;70472;47.592;17.640;2023-07-02T02:15:04;98971.66;;;16.67;85.48
81005;BME280;70472;47.592;17.640;2023-07-02T02:15:37;98971.88;;;16.66;85.38
81005;BME280;70472;47.592;17.640;2023-07-02T02:16:11;98976.00;;;16.68;86.51
81005;BME280;70472;47.592;17.640;2023-07-02T02:16:43;98973.69;;;16.72;86.11
81005;BME280;70472;47.592;17.640;2023-07-02T02:17:16;98977.56;;;16.76;86.77
81005;BME280;70472;47.592;17.640;2023-07-02T02:17:48;98977.13;;;16.79;86.30
81005;BME280;70472;47.592;17.640;2023-07-02T02:18:21;98977.13;;;16.79;86.44
81005;BME280;70472;47.592;17.640;2023-07-02T02:18:54;98978.16;;;16.78;86.65
81005;BME280;70472;47.592;17.640;2023-07-02T02:19:26;98977.13;;;16.79;87.05
81005;BME280;70472;47.592;17.640;2023-07-02T02:19:59;98979.00;;;16.78;86.46
81005;BME280;70472;47.592;17.640;2023-07-02T02:20:31;98981.00;;;16.83;86.47
81005;BME280;70472;47.592;17.640;2023-07-02T02:21:03;98974.53;;;16.84;86.83
81005;BME280;70472;47.592;17.640;2023-07-02T02:21:36;98978.66;;;16.87;86.47
81005;BME280;70472;47.592;17.640;2023-07-02T02:22:08;98971.59;;;16.86;86.76
81005;BME280;70472;47.592;17.640;2023-07-02T02:22:40;98977.00;;;16.86;87.04
81005;BME280;70472;47.592;17.640;2023-07-02T02:23:13;98980.53;;;16.86;87.20
81005;BME280;70472;47.592;17.640;2023-07-02T02:23:45;98978.16;;;16.90;87.77
81005;BME280;70472;47.592;17.640;2023-07-02T02:24:18;98982.53;;;16.91;87.31
81005;BME280;70472;47.592;17.640;2023-07-02T02:24:50;98982.06;;;16.94;87.38
81005;BME280;70472;47.592;17.640;2023-07-02T02:25:23;98986.19;;;16.96;87.62
81005;BME280;70472;47.592;17.640;2023-07-02T02:25:55;98983.38;;;16.91;87.15
81005;BME280;70472;47.592;17.640;2023-07-02T02:26:28;98979.34;;;16.94;87.58
81005;BME280;70472;47.592;17.640;2023-07-02T02:27:01;98978.53;;;16.93;87.54
81005;BME280;70472;47.592;17.640;2023-07-02T02:27:35;98984.31;;;16.97;86.82
81005;BME280;70472;47.592;17.640;2023-07-02T02:28:07;98979.72;;;16.97;87.27
81005;BME280;70472;47.592;17.640;2023-07-02T02:28:41;98978.66;;;16.98;87.53
81005;BME280;70472;47.592;17.640;2023-07-02T02:29:14;98979.22;;;17.00;86.93
81005;BME280;70472;47.592;17.640;2023-07-02T02:29:47;98980.28;;;16.99;86.87
81005;BME280;70472;47.592;17.640;2023-07-02T02:30:19;98984.75;;;16.94;87.91
81005;BME280;70472;47.592;17.640;2023-07-02T02:30:51;98981.22;;;16.93;87.05
81005;BME280;70472;47.592;17.640;2023-07-02T02:31:24;98986.41;;;16.95;87.66
81005;BME280;70472;47.592;17.640;2023-07-02T02:31:57;98982.41;;;16.97;86.81
81005;BME280;70472;47.592;17.640;2023-07-02T02:32:30;98984.66;;;17.00;86.89
81005;BME280;70472;47.592;17.640;2023-07-02T02:33:02;98980.66;;;17.03;87.59
81005;BME280;70472;47.592;17.640;2023-07-02T02:33:35;98986.28;;;17.01;86.88
81005;BME280;70472;47.592;17.640;2023-07-02T02:34:09;98983.13;;;17.04;87.33
81005;BME280;70472;47.592;17.640;2023-07-02T02:34:41;98982.06;;;17.05;86.82
81005;BME280;70472;47.592;17.640;2023-07-02T02:35:13;98978.28;;;17.06;87.47
81005;BME280;70472;47.592;17.640;2023-07-02T02:35:46;98988.06;;;17.07;87.75
81005;BME280;70472;47.592;17.640;2023-07-02T02:36:19;98986.19;;;17.08;87.81
81005;BME280;70472;47.592;17.640;2023-07-02T02:36:51;98981.59;;;17.08;87.12
81005;BME280;70472;47.592;17.640;2023-07-02T02:37:24;98985.69;;;17.11;87.22
81005;BME280;70472;47.592;17.640;2023-07-02T02:37:56;98987.59;;;17.11;87.26
81005;BME280;70472;47.592;17.640;2023-07-02T02:38:29;98981.72;;;17.14;87.52
81005;BME280;70472;47.592;17.640;2023-07-02T02:39:01;98985.25;;;17.14;86.97
81005;BME280;70472;47.592;17.640;2023-07-02T02:39:34;98979.81;;;17.14;87.56
81005;BME280;70472;47.592;17.640;2023-07-02T02:40:08;98986.06;;;17.15;86.65
81005;BME280;70472;47.592;17.640;2023-07-02T02:40:42;98980.66;;;17.15;86.71
81005;BME280;70472;47.592;17.640;2023-07-02T02:41:18;98985.00;;;17.16;87.44
81005;BME280;70472;47.592;17.640;2023-07-02T02:41:55;98985.00;;;17.16;86.98
81005;BME280;70472;47.592;17.640;2023-07-02T02:42:27;98977.34;;;17.13;86.75
81005;BME280;70472;47.592;17.640;2023-07-02T02:43:00;98989.59;;;17.15;87.36
81005;BME280;70472;47.592;17.640;2023-07-02T02:43:33;98985.00;;;17.16;86.88
81005;BME280;70472;47.592;17.640;2023-07-02T02:44:07;98988.28;;;17.18;87.71
81005;BME280;70472;47.592;17.640;2023-07-02T02:44:39;98980.41;;;17.16;87.27
81005;BME280;70472;47.592;17.640;2023-07-02T02:45:12;98991.50;;;17.15;87.50
81005;BME280;70472;47.592;17.640;2023-07-02T02:45:44;98983.94;;;17.17;87.72
81005;BME280;70472;47.592;17.640;2023-07-02T02:46:23;98990.19;;;17.17;87.06
81005;BME280;70472;47.592;17.640;2023-07-02T02:46:56;98983.69;;;17.18;87.20
81005;BME280;70472;47.592;17.640;2023-07-02T02:47:28;98989.13;;;17.18;86.42
81005;BME280;70472;47.592;17.640;2023-07-02T02:48:01;98991.00;;;17.18;87.48
81005;BME280;70472;47.592;17.640;2023-07-02T02:48:35;98991.81;;;17.18;86.73
81005;BME280;70472;47.592;17.640;2023-07-02T02:49:07;98987.22;;;17.19;87.24
81005;BME280;70472;47.592;17.640;2023-07-02T02:49:40;98996.78;;;17.21;88.07
81005;BME280;70472;47.592;17.640;2023-07-02T02:50:13;98985.13;;;17.21;86.99
81005;BME280;70472;47.592;17.640;2023-07-02T02:50:46;98986.75;;;17.22;86.85
81005;BME280;70472;47.592;17.640;2023-07-02T02:51:19;98989.47;;;17.22;86.78
81005;BME280;70472;47.592;17.640;2023-07-02T02:51:52;98991.59;;;17.20;86.73
81005;BME280;70472;47.592;17.640;2023-07-02T02:52:24;98986.88;;;17.15;87.46
81005;BME280;70472;47.592;17.640;2023-07-02T02:52:57;98987.34;;;17.12;87.18
81005;BME280;70472;47.592;17.640;2023-07-02T02:53:29;98989.94;;;17.07;87.34
81005;BME280;70472;47.592;17.640;2023-07-02T02:54:01;98989.25;;;17.12;88.27